sensor_id;sensor_type;location;lat;lon;timestamp;P1;durP1;ratioP1;P2;durP2;ratioP2
59062;SDS011;44851;45.648;9.004;2023-04-24T00:00:32;6.70;;;5.90;;
59062;SDS011;44851;45.648;9.004;2023-04-24T00:02:58;7.00;;;6.40;;
59062;SDS011;44851;45.648;9.004;2023-04-24T00:05:24;6.33;;;5.73;;
59062;SDS011;44851;45.648;9.004;2023-04-24T00:07:49;6.10;;;5.47;;
59062;SDS011;44851;45.648;9.004;2023-04-24T00:10:19;6.23;;;5.63;;
59062;SDS011;44851;45.648;9.004;2023-04-24T00:12:45;5.37;;;4.87;;
59062;SDS011;44851;45.648;9.004;2023-04-24T00:15:10;6.50;;;4.90;;
59062;SDS011;44851;45.648;9.004;2023-04-24T00:17:36;5.57;;;4.97;;
59062;SDS011;44851;45.648;9.004;2023-04-24T00:20:02;5.03;;;4.53;;
59062;SDS011;44851;45.648;9.004;2023-04-24T00:22:29;4.83;;;4.43;;
59062;SDS011;44851;45.648;9.004;2023-04-24T00:24:55;4.60;;;4.20;;
59062;SDS011;44851;45.648;9.004;2023-04-24T00:27:22;3.73;;;3.43;;
59062;SDS011;44851;45.648;9.004;2023-04-24T00:29:47;4.10;;;3.70;;
59062;SDS011;44851;45.648;9.004;2023-04-24T00:32:13;4.00;;;3.60;;
59062;SDS011;44851;45.648;9.004;2023-04-24T00:34:39;4.00;;;3.30;;
59062;SDS011;44851;45.648;9.004;2023-04-24T00:37:05;3.77;;;3.47;;
59062;SDS011;44851;45.648;9.004;2023-04-24T00:39:31;3.73;;;3.37;;
59062;SDS011;44851;45.648;9.004;2023-04-24T00:41:56;3.57;;;2.90;;
59062;SDS011;44851;45.648;9.004;2023-04-24T00:44:22;4.37;;;3.40;;
59062;SDS011;44851;45.648;9.004;2023-04-24T00:46:48;3.67;;;3.33;;
59062;SDS011;44851;45.648;9.004;2023-04-24T00:49:18;3.47;;;3.17;;
59062;SDS011;44851;45.648;9.004;2023-04-24T00:51:43;3.40;;;3.10;;
59062;SDS011;44851;45.648;9.004;2023-04-24T00:54:10;3.33;;;3.03;;
59062;SDS011;44851;45.648;9.004;2023-04-24T00:56:36;3.43;;;3.13;;
59062;SDS011;44851;45.648;9.004;2023-04-24T00:59:02;3.97;;;3.50;;
59062;SDS011;44851;45.648;9.004;2023-04-24T01:01:29;4.17;;;3.80;;
59062;SDS011;44851;45.648;9.004;2023-04-24T01:03:55;3.70;;;3.40;;
59062;SDS011;44851;45.648;9.004;2023-04-24T01:06:22;4.17;;;3.80;;
59062;SDS011;44851;45.648;9.004;2023-04-24T01:08:52;5.03;;;4.33;;
59062;SDS011;44851;45.648;9.004;2023-04-24T01:11:17;4.83;;;4.43;;
59062;SDS011;44851;45.648;9.004;2023-04-24T01:13:43;5.50;;;5.00;;
59062;SDS011;44851;45.648;9.004;2023-04-24T01:16:10;5.37;;;4.87;;
59062;SDS011;44851;45.648;9.004;2023-04-24T01:18:35;5.50;;;5.00;;
59062;SDS011;44851;45.648;9.004;2023-04-24T01:21:02;7.13;;;5.87;;
59062;SDS011;44851;45.648;9.004;2023-04-24T01:23:29;6.10;;;5.50;;
59062;SDS011;44851;45.648;9.004;2023-04-24T01:25:55;7.10;;;6.40;;
59062;SDS011;44851;45.648;9.004;2023-04-24T01:28:21;6.27;;;5.70;;
59062;SDS011;44851;45.648;9.004;2023-04-24T01:30:46;6.53;;;5.93;;
59062;SDS011;44851;45.648;9.004;2023-04-24T01:33:12;7.67;;;6.87;;
59062;SDS011;44851;45.648;9.004;2023-04-24T01:35:38;7.00;;;6.40;;
59062;SDS011;44851;45.648;9.004;2023-04-24T01:38:04;6.57;;;5.97;;
59062;SDS011;44851;45.648;9.004;2023-04-24T01:40:30;7.00;;;6.30;;
59062;SDS011;44851;45.648;9.004;2023-04-24T01:42:56;6.63;;;6.03;;
59062;SDS011;44851;45.648;9.004;2023-04-24T01:45:23;6.13;;;5.30;;
59062;SDS011;44851;45.648;9.004;2023-04-24T01:47:48;5.20;;;4.70;;
59062;SDS011;44851;45.648;9.004;2023-04-24T01:50:14;5.80;;;5.30;;
59062;SDS011;44851;45.648;9.004;2023-04-24T01:52:40;4.90;;;4.50;;
59062;SDS011;44851;45.648;9.004;2023-04-24T01:55:06;4.43;;;3.57;;
59062;SDS011;44851;45.648;9.004;2023-04-24T01:57:32;3.67;;;3.37;;
59062;SDS011;44851;45.648;9.004;2023-04-24T01:59:58;3.83;;;3.50;;
59062;SDS011;44851;45.648;9.004;2023-04-24T02:02:24;3.90;;;3.50;;
59062;SDS011;44851;45.648;9.004;2023-04-24T02:04:52;4.23;;;3.73;;
59062;SDS011;44851;45.648;9.004;2023-04-24T02:07:20;4.20;;;3.60;;
59062;SDS011;44851;45.648;9.004;2023-04-24T02:09:46;5.20;;;3.97;;
59062;SDS011;44851;45.648;9.004;2023-04-24T02:12:12;5.03;;;3.80;;
59062;SDS011;44851;45.648;9.004;2023-04-24T02:14:37;4.50;;;4.10;;
59062;SDS011;44851;45.648;9.004;2023-04-24T02:17:02;4.03;;;3.73;;
59062;SDS011;44851;45.648;9.004;2023-04-24T02:19:29;4.03;;;3.73;;
59062;SDS011;44851;45.648;9.004;2023-04-24T02:21:55;4.00;;;3.60;;
59062;SDS011;44851;45.648;9.004;2023-04-24T02:24:21;4.47;;;4.07;;
59062;SDS011;44851;45.648;9.004;2023-04-24T02:26:46;4.13;;;3.83;;
59062;SDS011;44851;45.648;9.004;2023-04-24T02:29:11;4.20;;;3.80;;
59062;SDS011;44851;45.648;9.004;2023-04-24T02:31:37;4.20;;;3.80;;
59062;SDS011;44851;45.648;9.004;2023-04-24T02:34:02;4.57;;;3.90;;
59062;SDS011;44851;45.648;9.004;2023-04-24T02:36:28;4.03;;;3.63;;
59062;SDS011;44851;45.648;9.004;2023-04-24T02:38:53;4.37;;;3.63;;
59062;SDS011;44851;45.648;9.004;2023-04-24T02:41:19;4.60;;;4.20;;
59062;SDS011;44851;45.648;9.004;2023-04-24T02:43:44;4.87;;;3.67;;
59062;SDS011;44851;45.648;9.004;2023-04-24T02:46:10;4.13;;;3.83;;
59062;SDS011;44851;45.648;9.004;2023-04-24T02:48:36;4.17;;;3.77;;
59062;SDS011;44851;45.648;9.004;2023-04-24T02:51:01;4.17;;;3.77;;
59062;SDS011;44851;45.648;9.004;2023-04-24T02:53:26;4.17;;;3.77;;
59062;SDS011;44851;45.648;9.004;2023-04-24T02:55:52;4.07;;;3.77;;
59062;SDS011;44851;45.648;9.004;2023-04-24T02:58:17;4.10;;;3.17;;
59062;SDS011;44851;45.648;9.004;2023-04-24T03:00:45;4.17;;;3.37;;
59062;SDS011;44851;45.648;9.004;2023-04-24T03:03:11;4.20;;;3.80;;
59062;SDS011;44851;45.648;9.004;2023-04-24T03:05:36;3.70;;;3.40;;
59062;SDS011;44851;45.648;9.004;2023-04-24T03:08:02;5.13;;;3.70;;
59062;SDS011;44851;45.648;9.004;2023-04-24T03:10:27;4.00;;;3.60;;
59062;SDS011;44851;45.648;9.004;2023-04-24T03:12:52;4.53;;;3.83;;
59062;SDS011;44851;45.648;9.004;2023-04-24T03:15:19;3.60;;;3.30;;
59062;SDS011;44851;45.648;9.004;2023-04-24T03:17:45;3.93;;;3.53;;
59062;SDS011;44851;45.648;9.004;2023-04-24T03:20:10;3.80;;;3.50;;
59062;SDS011;44851;45.648;9.004;2023-04-24T03:22:36;3.43;;;3.13;;
59062;SDS011;44851;45.648;9.004;2023-04-24T03:25:01;3.50;;;3.17;;
59062;SDS011;44851;45.648;9.004;2023-04-24T03:27:27;3.23;;;3.03;;
59062;SDS011;44851;45.648;9.004;2023-04-24T03:29:53;3.00;;;2.80;;
59062;SDS011;44851;45.648;9.004;2023-04-24T03:32:21;3.63;;;2.80;;
59062;SDS011;44851;45.648;9.004;2023-04-24T03:34:48;2.90;;;2.70;;
59062;SDS011;44851;45.648;9.004;2023-04-24T03:37:13;2.60;;;2.40;;
59062;SDS011;44851;45.648;9.004;2023-04-24T03:39:39;2.30;;;2.10;;
59062;SDS011;44851;45.648;9.004;2023-04-24T03:42:05;3.03;;;2.00;;
59062;SDS011;44851;45.648;9.004;2023-04-24T03:44:30;1.60;;;1.50;;
59062;SDS011;44851;45.648;9.004;2023-04-24T03:46:57;1.63;;;1.47;;
59062;SDS011;44851;45.648;9.004;2023-04-24T03:49:23;1.60;;;1.50;;
59062;SDS011;44851;45.648;9.004;2023-04-24T03:51:48;1.40;;;1.30;;
59062;SDS011;44851;45.648;9.004;2023-04-24T03:54:14;1.23;;;1.13;;
59062;SDS011;44851;45.648;9.004;2023-04-24T03:56:39;0.97;;;0.97;;
59062;SDS011;44851;45.648;9.004;2023-04-24T03:59:04;0.93;;;0.93;;
59062;SDS011;44851;45.648;9.004;2023-04-24T04:01:30;1.03;;;1.00;;
59062;SDS011;44851;45.648;9.004;2023-04-24T04:03:56;1.00;;;0.90;;
59062;SDS011;44851;45.648;9.004;2023-04-24T04:06:21;1.10;;;1.00;;
59062;SDS011;44851;45.648;9.004;2023-04-24T04:08:47;0.93;;;0.93;;
59062;SDS011;44851;45.648;9.004;2023-04-24T04:11:12;0.90;;;0.90;;
59062;SDS011;44851;45.648;9.004;2023-04-24T04:13:38;1.20;;;1.10;;
59062;SDS011;44851;45.648;9.004;2023-04-24T04:16:03;1.27;;;1.17;;
59062;SDS011;44851;45.648;9.004;2023-04-24T04:18:29;0.93;;;0.93;;
59062;SDS011;44851;45.648;9.004;2023-04-24T04:20:55;1.00;;;1.00;;
59062;SDS011;44851;45.648;9.004;2023-04-24T04:23:21;1.30;;;1.20;;
59062;SDS011;44851;45.648;9.004;2023-04-24T04:25:47;1.30;;;1.10;;
59062;SDS011;44851;45.648;9.004;2023-04-24T04:28:12;1.27;;;1.20;;
59062;SDS011;44851;45.648;9.004;2023-04-24T04:30:38;2.17;;;1.13;;
59062;SDS011;44851;45.648;9.004;2023-04-24T04:33:05;1.83;;;1.17;;
59062;SDS011;44851;45.648;9.004;2023-04-24T04:35:30;1.50;;;1.40;;
59062;SDS011;44851;45.648;9.004;2023-04-24T04:37:55;1.30;;;1.20;;
59062;SDS011;44851;45.648;9.004;2023-04-24T04:40:23;1.10;;;1.00;;
59062;SDS011;44851;45.648;9.004;2023-04-24T04:42:49;2.03;;;1.17;;
59062;SDS011;44851;45.648;9.004;2023-04-24T04:45:18;1.20;;;1.10;;
59062;SDS011;44851;45.648;9.004;2023-04-24T04:47:43;1.37;;;1.27;;
59062;SDS011;44851;45.648;9.004;2023-04-24T04:50:09;1.97;;;1.13;;
59062;SDS011;44851;45.648;9.004;2023-04-24T04:52:35;1.60;;;1.47;;
59062;SDS011;44851;45.648;9.004;2023-04-24T04:55:01;1.50;;;1.30;;
59062;SDS011;44851;45.648;9.004;2023-04-24T04:57:26;1.40;;;1.30;;
59062;SDS011;44851;45.648;9.004;2023-04-24T04:59:52;1.10;;;1.00;;
59062;SDS011;44851;45.648;9.004;2023-04-24T05:02:17;1.60;;;1.40;;
59062;SDS011;44851;45.648;9.004;2023-04-24T05:04:43;2.10;;;1.50;;
59062;SDS011;44851;45.648;9.004;2023-04-24T05:07:08;2.30;;;1.50;;
59062;SDS011;44851;45.648;9.004;2023-04-24T05:09:34;1.97;;;1.50;;
59062;SDS011;44851;45.648;9.004;2023-04-24T05:11:59;2.00;;;1.43;;
59062;SDS011;44851;45.648;9.004;2023-04-24T05:14:25;1.97;;;1.77;;
59062;SDS011;44851;45.648;9.004;2023-04-24T05:16:50;1.50;;;1.40;;
59062;SDS011;44851;45.648;9.004;2023-04-24T05:19:16;1.40;;;1.30;;
59062;SDS011;44851;45.648;9.004;2023-04-24T05:21:41;1.40;;;1.30;;
59062;SDS011;44851;45.648;9.004;2023-04-24T05:24:07;1.83;;;1.40;;
59062;SDS011;44851;45.648;9.004;2023-04-24T05:26:32;1.87;;;1.30;;
59062;SDS011;44851;45.648;9.004;2023-04-24T05:28:58;1.50;;;1.40;;
59062;SDS011;44851;45.648;9.004;2023-04-24T05:31:23;1.70;;;1.60;;
59062;SDS011;44851;45.648;9.004;2023-04-24T05:33:50;1.80;;;1.43;;
59062;SDS011;44851;45.648;9.004;2023-04-24T05:36:15;2.80;;;1.47;;
59062;SDS011;44851;45.648;9.004;2023-04-24T05:38:41;1.57;;;1.47;;
59062;SDS011;44851;45.648;9.004;2023-04-24T05:41:06;2.10;;;1.80;;
59062;SDS011;44851;45.648;9.004;2023-04-24T05:43:32;2.03;;;1.83;;
59062;SDS011;44851;45.648;9.004;2023-04-24T05:45:57;1.90;;;1.80;;
59062;SDS011;44851;45.648;9.004;2023-04-24T05:48:22;1.37;;;1.27;;
59062;SDS011;44851;45.648;9.004;2023-04-24T05:50:48;1.67;;;1.43;;
59062;SDS011;44851;45.648;9.004;2023-04-24T05:53:14;1.83;;;1.33;;
59062;SDS011;44851;45.648;9.004;2023-04-24T05:55:39;1.70;;;1.60;;
59062;SDS011;44851;45.648;9.004;2023-04-24T05:58:05;2.03;;;1.77;;
59062;SDS011;44851;45.648;9.004;2023-04-24T06:00:31;2.37;;;1.50;;
59062;SDS011;44851;45.648;9.004;2023-04-24T06:02:56;3.97;;;1.87;;
59062;SDS011;44851;45.648;9.004;2023-04-24T06:05:22;1.73;;;1.30;;
59062;SDS011;44851;45.648;9.004;2023-04-24T06:07:48;2.07;;;1.60;;
59062;SDS011;44851;45.648;9.004;2023-04-24T06:10:13;2.27;;;1.50;;
59062;SDS011;44851;45.648;9.004;2023-04-24T06:12:39;1.13;;;1.03;;
59062;SDS011;44851;45.648;9.004;2023-04-24T06:15:04;2.10;;;1.40;;
59062;SDS011;44851;45.648;9.004;2023-04-24T06:17:30;1.27;;;1.17;;
59062;SDS011;44851;45.648;9.004;2023-04-24T06:19:57;1.27;;;1.17;;
59062;SDS011;44851;45.648;9.004;2023-04-24T06:22:22;2.03;;;1.30;;
59062;SDS011;44851;45.648;9.004;2023-04-24T06:24:48;1.60;;;1.27;;
59062;SDS011;44851;45.648;9.004;2023-04-24T06:27:13;1.33;;;1.23;;
59062;SDS011;44851;45.648;9.004;2023-04-24T06:29:39;2.43;;;1.40;;
59062;SDS011;44851;45.648;9.004;2023-04-24T06:32:04;1.30;;;1.20;;
59062;SDS011;44851;45.648;9.004;2023-04-24T06:34:30;1.20;;;1.10;;
59062;SDS011;44851;45.648;9.004;2023-04-24T06:36:56;1.10;;;1.00;;
59062;SDS011;44851;45.648;9.004;2023-04-24T06:39:21;1.10;;;1.00;;
59062;SDS011;44851;45.648;9.004;2023-04-24T06:41:47;1.20;;;1.10;;
59062;SDS011;44851;45.648;9.004;2023-04-24T06:44:12;1.57;;;1.10;;
59062;SDS011;44851;45.648;9.004;2023-04-24T06:46:39;1.10;;;1.10;;
59062;SDS011;44851;45.648;9.004;2023-04-24T06:49:05;1.27;;;1.17;;
59062;SDS011;44851;45.648;9.004;2023-04-24T06:51:31;1.73;;;1.20;;
59062;SDS011;44851;45.648;9.004;2023-04-24T06:53:58;2.47;;;1.20;;
59062;SDS011;44851;45.648;9.004;2023-04-24T06:56:24;1.57;;;1.27;;
59062;SDS011;44851;45.648;9.004;2023-04-24T06:58:50;1.30;;;1.20;;
59062;SDS011;44851;45.648;9.004;2023-04-24T07:01:16;2.23;;;1.40;;
59062;SDS011;44851;45.648;9.004;2023-04-24T07:03:41;1.87;;;1.20;;
59062;SDS011;44851;45.648;9.004;2023-04-24T07:06:07;1.27;;;1.17;;
59062;SDS011;44851;45.648;9.004;2023-04-24T07:08:33;1.07;;;1.00;;
59062;SDS011;44851;45.648;9.004;2023-04-24T07:10:58;2.27;;;1.20;;
59062;SDS011;44851;45.648;9.004;2023-04-24T07:13:24;1.20;;;1.10;;
59062;SDS011;44851;45.648;9.004;2023-04-24T07:15:50;1.40;;;1.30;;
59062;SDS011;44851;45.648;9.004;2023-04-24T07:18:17;1.27;;;0.90;;
59062;SDS011;44851;45.648;9.004;2023-04-24T07:20:43;1.67;;;1.00;;
59062;SDS011;44851;45.648;9.004;2023-04-24T07:23:09;1.30;;;1.10;;
59062;SDS011;44851;45.648;9.004;2023-04-24T07:25:34;1.60;;;1.50;;
59062;SDS011;44851;45.648;9.004;2023-04-24T07:28:00;1.17;;;1.07;;
59062;SDS011;44851;45.648;9.004;2023-04-24T07:30:26;1.40;;;1.30;;
59062;SDS011;44851;45.648;9.004;2023-04-24T07:32:53;1.20;;;1.10;;
59062;SDS011;44851;45.648;9.004;2023-04-24T07:35:19;1.20;;;1.20;;
59062;SDS011;44851;45.648;9.004;2023-04-24T07:37:45;2.03;;;1.30;;
59062;SDS011;44851;45.648;9.004;2023-04-24T07:40:14;1.40;;;1.20;;
59062;SDS011;44851;45.648;9.004;2023-04-24T07:42:39;1.27;;;1.17;;
59062;SDS011;44851;45.648;9.004;2023-04-24T07:45:05;2.07;;;1.30;;
59062;SDS011;44851;45.648;9.004;2023-04-24T07:47:31;1.73;;;1.30;;
59062;SDS011;44851;45.648;9.004;2023-04-24T07:49:58;2.53;;;1.50;;
59062;SDS011;44851;45.648;9.004;2023-04-24T07:52:24;1.40;;;1.30;;
59062;SDS011;44851;45.648;9.004;2023-04-24T07:54:50;1.93;;;1.33;;
59062;SDS011;44851;45.648;9.004;2023-04-24T07:57:15;1.10;;;1.10;;
59062;SDS011;44851;45.648;9.004;2023-04-24T07:59:41;1.53;;;1.20;;
59062;SDS011;44851;45.648;9.004;2023-04-24T08:02:07;1.53;;;1.10;;
59062;SDS011;44851;45.648;9.004;2023-04-24T08:04:32;1.70;;;1.10;;
59062;SDS011;44851;45.648;9.004;2023-04-24T08:06:58;1.10;;;1.00;;
59062;SDS011;44851;45.648;9.004;2023-04-24T08:09:24;1.57;;;1.37;;
59062;SDS011;44851;45.648;9.004;2023-04-24T08:11:50;1.60;;;1.10;;
59062;SDS011;44851;45.648;9.004;2023-04-24T08:14:15;1.40;;;1.10;;
59062;SDS011;44851;45.648;9.004;2023-04-24T08:16:41;2.50;;;1.47;;
59062;SDS011;44851;45.648;9.004;2023-04-24T08:19:06;1.40;;;1.30;;
59062;SDS011;44851;45.648;9.004;2023-04-24T08:21:32;1.20;;;1.10;;
59062;SDS011;44851;45.648;9.004;2023-04-24T08:23:57;0.90;;;0.90;;
59062;SDS011;44851;45.648;9.004;2023-04-24T08:26:23;1.00;;;1.00;;
59062;SDS011;44851;45.648;9.004;2023-04-24T08:28:48;0.93;;;0.90;;
59062;SDS011;44851;45.648;9.004;2023-04-24T08:31:14;1.30;;;1.20;;
59062;SDS011;44851;45.648;9.004;2023-04-24T08:33:40;1.33;;;0.90;;
59062;SDS011;44851;45.648;9.004;2023-04-24T08:36:06;1.10;;;0.80;;
59062;SDS011;44851;45.648;9.004;2023-04-24T08:38:32;1.17;;;0.70;;
59062;SDS011;44851;45.648;9.004;2023-04-24T08:40:59;0.70;;;0.70;;
59062;SDS011;44851;45.648;9.004;2023-04-24T08:43:25;0.70;;;0.70;;
59062;SDS011;44851;45.648;9.004;2023-04-24T08:45:51;0.70;;;0.70;;
59062;SDS011;44851;45.648;9.004;2023-04-24T08:48:18;0.60;;;0.60;;
59062;SDS011;44851;45.648;9.004;2023-04-24T08:50:43;1.10;;;0.80;;
59062;SDS011;44851;45.648;9.004;2023-04-24T08:53:09;0.70;;;0.70;;
59062;SDS011;44851;45.648;9.004;2023-04-24T08:55:37;0.70;;;0.70;;
59062;SDS011;44851;45.648;9.004;2023-04-24T08:58:03;0.60;;;0.60;;
59062;SDS011;44851;45.648;9.004;2023-04-24T09:00:29;0.93;;;0.63;;
59062;SDS011;44851;45.648;9.004;2023-04-24T09:02:55;1.50;;;0.77;;
59062;SDS011;44851;45.648;9.004;2023-04-24T09:05:21;0.90;;;0.90;;
59062;SDS011;44851;45.648;9.004;2023-04-24T09:07:55;0.73;;;0.73;;
59062;SDS011;44851;45.648;9.004;2023-04-24T09:10:22;0.80;;;0.80;;
59062;SDS011;44851;45.648;9.004;2023-04-24T09:12:50;0.97;;;0.93;;
59062;SDS011;44851;45.648;9.004;2023-04-24T09:15:16;0.80;;;0.80;;
59062;SDS011;44851;45.648;9.004;2023-04-24T09:17:42;1.80;;;0.80;;
59062;SDS011;44851;45.648;9.004;2023-04-24T09:20:08;1.03;;;0.93;;
59062;SDS011;44851;45.648;9.004;2023-04-24T09:22:33;2.30;;;0.93;;
59062;SDS011;44851;45.648;9.004;2023-04-24T09:25:03;1.57;;;1.07;;
59062;SDS011;44851;45.648;9.004;2023-04-24T09:27:31;1.13;;;0.90;;
59062;SDS011;44851;45.648;9.004;2023-04-24T09:29:57;0.90;;;0.67;;
59062;SDS011;44851;45.648;9.004;2023-04-24T09:32:23;0.80;;;0.80;;
59062;SDS011;44851;45.648;9.004;2023-04-24T09:35:07;1.50;;;0.83;;
59062;SDS011;44851;45.648;9.004;2023-04-24T09:37:35;1.47;;;0.80;;
59062;SDS011;44851;45.648;9.004;2023-04-24T09:40:10;0.77;;;0.77;;
59062;SDS011;44851;45.648;9.004;2023-04-24T09:42:53;0.80;;;0.80;;
59062;SDS011;44851;45.648;9.004;2023-04-24T09:45:44;0.70;;;0.70;;
59062;SDS011;44851;45.648;9.004;2023-04-24T09:48:09;1.10;;;0.83;;
59062;SDS011;44851;45.648;9.004;2023-04-24T09:50:35;1.07;;;0.90;;
59062;SDS011;44851;45.648;9.004;2023-04-24T09:53:01;0.73;;;0.73;;
59062;SDS011;44851;45.648;9.004;2023-04-24T09:55:28;1.50;;;0.90;;
59062;SDS011;44851;45.648;9.004;2023-04-24T09:57:55;1.03;;;0.90;;
59062;SDS011;44851;45.648;9.004;2023-04-24T10:00:25;2.00;;;0.70;;
59062;SDS011;44851;45.648;9.004;2023-04-24T10:03:01;0.90;;;0.70;;
59062;SDS011;44851;45.648;9.004;2023-04-24T10:05:28;0.97;;;0.63;;
59062;SDS011;44851;45.648;9.004;2023-04-24T10:07:56;1.10;;;0.97;;
59062;SDS011;44851;45.648;9.004;2023-04-24T10:10:23;0.80;;;0.80;;
59062;SDS011;44851;45.648;9.004;2023-04-24T10:12:48;2.00;;;0.77;;
59062;SDS011;44851;45.648;9.004;2023-04-24T10:15:16;0.90;;;0.70;;
59062;SDS011;44851;45.648;9.004;2023-04-24T10:17:46;0.77;;;0.77;;
59062;SDS011;44851;45.648;9.004;2023-04-24T10:20:24;1.20;;;1.10;;
59062;SDS011;44851;45.648;9.004;2023-04-24T10:22:52;0.93;;;0.93;;
59062;SDS011;44851;45.648;9.004;2023-04-24T10:25:22;1.27;;;1.17;;
59062;SDS011;44851;45.648;9.004;2023-04-24T10:27:49;0.70;;;0.70;;
59062;SDS011;44851;45.648;9.004;2023-04-24T10:30:15;0.70;;;0.70;;
59062;SDS011;44851;45.648;9.004;2023-04-24T10:32:42;0.90;;;0.90;;
59062;SDS011;44851;45.648;9.004;2023-04-24T10:35:08;1.10;;;1.00;;
59062;SDS011;44851;45.648;9.004;2023-04-24T10:37:35;1.40;;;1.10;;
59062;SDS011;44851;45.648;9.004;2023-04-24T10:40:03;1.10;;;1.00;;
59062;SDS011;44851;45.648;9.004;2023-04-24T10:42:30;1.00;;;0.73;;
59062;SDS011;44851;45.648;9.004;2023-04-24T10:44:56;1.23;;;1.03;;
59062;SDS011;44851;45.648;9.004;2023-04-24T10:47:23;1.57;;;0.90;;
59062;SDS011;44851;45.648;9.004;2023-04-24T10:49:50;1.27;;;1.00;;
59062;SDS011;44851;45.648;9.004;2023-04-24T10:52:16;1.20;;;1.10;;
59062;SDS011;44851;45.648;9.004;2023-04-24T10:54:43;1.43;;;0.90;;
59062;SDS011;44851;45.648;9.004;2023-04-24T10:59:51;0.83;;;0.83;;
59062;SDS011;44851;45.648;9.004;2023-04-24T11:02:38;1.30;;;1.00;;
59062;SDS011;44851;45.648;9.004;2023-04-24T11:05:05;1.17;;;1.07;;
59062;SDS011;44851;45.648;9.004;2023-04-24T11:10:37;1.20;;;1.10;;
59062;SDS011;44851;45.648;9.004;2023-04-24T11:13:04;1.17;;;1.10;;
59062;SDS011;44851;45.648;9.004;2023-04-24T11:15:29;1.40;;;1.13;;
59062;SDS011;44851;45.648;9.004;2023-04-24T11:17:55;1.70;;;1.03;;
59062;SDS011;44851;45.648;9.004;2023-04-24T11:20:22;2.70;;;0.87;;
59062;SDS011;44851;45.648;9.004;2023-04-24T11:22:49;0.90;;;0.87;;
59062;SDS011;44851;45.648;9.004;2023-04-24T11:25:18;1.87;;;0.90;;
59062;SDS011;44851;45.648;9.004;2023-04-24T11:27:44;1.10;;;0.97;;
59062;SDS011;44851;45.648;9.004;2023-04-24T11:30:16;0.80;;;0.80;;
59062;SDS011;44851;45.648;9.004;2023-04-24T11:32:47;1.20;;;1.00;;
59062;SDS011;44851;45.648;9.004;2023-04-24T11:35:15;0.80;;;0.80;;
59062;SDS011;44851;45.648;9.004;2023-04-24T11:37:44;1.30;;;0.90;;
59062;SDS011;44851;45.648;9.004;2023-04-24T11:40:12;0.80;;;0.80;;
59062;SDS011;44851;45.648;9.004;2023-04-24T11:42:41;2.13;;;0.90;;
59062;SDS011;44851;45.648;9.004;2023-04-24T11:45:12;1.33;;;1.03;;
59062;SDS011;44851;45.648;9.004;2023-04-24T11:47:40;2.50;;;1.13;;
59062;SDS011;44851;45.648;9.004;2023-04-24T11:50:10;1.13;;;1.00;;
59062;SDS011;44851;45.648;9.004;2023-04-24T11:52:37;3.53;;;1.20;;
59062;SDS011;44851;45.648;9.004;2023-04-24T11:55:06;1.30;;;1.00;;
59062;SDS011;44851;45.648;9.004;2023-04-24T11:57:33;1.23;;;0.97;;
59062;SDS011;44851;45.648;9.004;2023-04-24T12:00:03;0.83;;;0.80;;
59062;SDS011;44851;45.648;9.004;2023-04-24T12:02:33;1.90;;;0.80;;
59062;SDS011;44851;45.648;9.004;2023-04-24T12:04:58;1.17;;;0.90;;
59062;SDS011;44851;45.648;9.004;2023-04-24T12:07:23;1.70;;;1.00;;
59062;SDS011;44851;45.648;9.004;2023-04-24T12:09:55;0.87;;;0.87;;
59062;SDS011;44851;45.648;9.004;2023-04-24T12:12:22;1.00;;;0.90;;
59062;SDS011;44851;45.648;9.004;2023-04-24T12:14:54;1.77;;;0.97;;
59062;SDS011;44851;45.648;9.004;2023-04-24T12:17:24;1.33;;;0.87;;
59062;SDS011;44851;45.648;9.004;2023-04-24T12:19:51;0.90;;;0.90;;
59062;SDS011;44851;45.648;9.004;2023-04-24T12:22:18;0.80;;;0.80;;
59062;SDS011;44851;45.648;9.004;2023-04-24T12:25:00;1.33;;;0.87;;
59062;SDS011;44851;45.648;9.004;2023-04-24T12:27:30;1.50;;;0.90;;
59062;SDS011;44851;45.648;9.004;2023-04-24T12:29:59;3.83;;;0.90;;
59062;SDS011;44851;45.648;9.004;2023-04-24T12:32:26;0.93;;;0.93;;
59062;SDS011;44851;45.648;9.004;2023-04-24T12:34:52;1.50;;;0.83;;
59062;SDS011;44851;45.648;9.004;2023-04-24T12:37:18;1.30;;;0.83;;
59062;SDS011;44851;45.648;9.004;2023-04-24T12:40:03;1.67;;;1.10;;
59062;SDS011;44851;45.648;9.004;2023-04-24T12:42:31;1.17;;;1.00;;
59062;SDS011;44851;45.648;9.004;2023-04-24T12:44:58;0.90;;;0.90;;
59062;SDS011;44851;45.648;9.004;2023-04-24T12:47:25;1.27;;;0.83;;
59062;SDS011;44851;45.648;9.004;2023-04-24T12:49:51;1.70;;;1.50;;
59062;SDS011;44851;45.648;9.004;2023-04-24T12:52:18;1.10;;;0.90;;
59062;SDS011;44851;45.648;9.004;2023-04-24T12:54:45;1.70;;;0.90;;
59062;SDS011;44851;45.648;9.004;2023-04-24T12:57:11;1.43;;;0.90;;
59062;SDS011;44851;45.648;9.004;2023-04-24T12:59:36;0.80;;;0.67;;
59062;SDS011;44851;45.648;9.004;2023-04-24T13:02:01;0.50;;;0.50;;
59062;SDS011;44851;45.648;9.004;2023-04-24T13:04:27;1.30;;;0.80;;
59062;SDS011;44851;45.648;9.004;2023-04-24T13:06:53;1.10;;;0.80;;
59062;SDS011;44851;45.648;9.004;2023-04-24T13:09:18;0.60;;;0.60;;
59062;SDS011;44851;45.648;9.004;2023-04-24T13:11:44;1.03;;;0.80;;
59062;SDS011;44851;45.648;9.004;2023-04-24T13:14:09;0.97;;;0.97;;
59062;SDS011;44851;45.648;9.004;2023-04-24T13:16:35;0.83;;;0.83;;
59062;SDS011;44851;45.648;9.004;2023-04-24T13:19:00;0.80;;;0.80;;
59062;SDS011;44851;45.648;9.004;2023-04-24T13:21:25;1.83;;;1.13;;
59062;SDS011;44851;45.648;9.004;2023-04-24T13:23:51;1.90;;;0.70;;
59062;SDS011;44851;45.648;9.004;2023-04-24T13:26:17;0.80;;;0.80;;
59062;SDS011;44851;45.648;9.004;2023-04-24T13:28:42;1.00;;;0.90;;
59062;SDS011;44851;45.648;9.004;2023-04-24T13:31:07;1.40;;;1.00;;
59062;SDS011;44851;45.648;9.004;2023-04-24T13:33:33;0.90;;;0.90;;
59062;SDS011;44851;45.648;9.004;2023-04-24T13:35:58;0.90;;;0.90;;
59062;SDS011;44851;45.648;9.004;2023-04-24T13:38:24;1.00;;;0.90;;
59062;SDS011;44851;45.648;9.004;2023-04-24T13:40:50;0.90;;;0.90;;
59062;SDS011;44851;45.648;9.004;2023-04-24T13:43:15;0.80;;;0.80;;
59062;SDS011;44851;45.648;9.004;2023-04-24T13:45:41;0.80;;;0.80;;
59062;SDS011;44851;45.648;9.004;2023-04-24T13:48:06;0.70;;;0.70;;
59062;SDS011;44851;45.648;9.004;2023-04-24T13:50:33;0.80;;;0.80;;
59062;SDS011;44851;45.648;9.004;2023-04-24T13:52:59;0.90;;;0.90;;
59062;SDS011;44851;45.648;9.004;2023-04-24T13:55:26;1.00;;;0.90;;
59062;SDS011;44851;45.648;9.004;2023-04-24T13:57:51;1.60;;;0.90;;
59062;SDS011;44851;45.648;9.004;2023-04-24T14:00:20;0.93;;;0.80;;
59062;SDS011;44851;45.648;9.004;2023-04-24T14:02:45;0.80;;;0.80;;
59062;SDS011;44851;45.648;9.004;2023-04-24T14:05:12;0.67;;;0.67;;
59062;SDS011;44851;45.648;9.004;2023-04-24T14:07:40;1.00;;;0.87;;
59062;SDS011;44851;45.648;9.004;2023-04-24T14:10:06;3.57;;;0.90;;
59062;SDS011;44851;45.648;9.004;2023-04-24T14:12:31;2.70;;;0.90;;
59062;SDS011;44851;45.648;9.004;2023-04-24T14:14:57;0.70;;;0.70;;
59062;SDS011;44851;45.648;9.004;2023-04-24T14:17:22;0.70;;;0.70;;
59062;SDS011;44851;45.648;9.004;2023-04-24T14:19:48;0.90;;;0.80;;
59062;SDS011;44851;45.648;9.004;2023-04-24T14:22:13;0.80;;;0.73;;
59062;SDS011;44851;45.648;9.004;2023-04-24T14:24:39;0.73;;;0.60;;
59062;SDS011;44851;45.648;9.004;2023-04-24T14:27:04;0.90;;;0.70;;
59062;SDS011;44851;45.648;9.004;2023-04-24T14:29:30;0.60;;;0.60;;
59062;SDS011;44851;45.648;9.004;2023-04-24T14:31:55;0.53;;;0.53;;
59062;SDS011;44851;45.648;9.004;2023-04-24T14:34:20;1.30;;;0.80;;
59062;SDS011;44851;45.648;9.004;2023-04-24T14:36:46;0.63;;;0.63;;
59062;SDS011;44851;45.648;9.004;2023-04-24T14:39:11;1.40;;;0.73;;
59062;SDS011;44851;45.648;9.004;2023-04-24T14:41:37;0.80;;;0.70;;
59062;SDS011;44851;45.648;9.004;2023-04-24T14:44:04;0.80;;;0.80;;
59062;SDS011;44851;45.648;9.004;2023-04-24T14:46:30;1.60;;;1.30;;
59062;SDS011;44851;45.648;9.004;2023-04-24T14:48:56;1.33;;;1.00;;